createdAt,value
2022-10-14T00:01:18.319Z,67.57
2022-10-14T00:03:56.474Z,79.60
2022-10-14T00:06:27.139Z,75.13
2022-10-14T00:08:57.002Z,72.50
2022-10-14T00:11:30.867Z,79.63
2022-10-14T00:14:01.159Z,67.25
2022-10-14T00:16:32.877Z,74.78
2022-10-14T00:19:00.675Z,69.80
2022-10-14T00:21:29.261Z,75.93
2022-10-14T00:23:59.020Z,72.78
2022-10-14T00:26:33.894Z,72.70
2022-10-14T00:29:02.100Z,68.32
2022-10-14T00:31:32.499Z,69.80
2022-10-14T00:34:00.375Z,63.85
2022-10-14T00:36:27.711Z,65.88
2022-10-14T00:38:55.012Z,72.75
2022-10-14T00:41:25.432Z,71.50
2022-10-14T00:44:00.009Z,76.90
2022-10-14T00:46:49.953Z,78.65
2022-10-14T00:49:45.964Z,74.07
2022-10-14T00:52:19.410Z,77.97
2022-10-14T00:54:53.647Z,73.72
2022-10-14T00:57:22.972Z,73.40
2022-10-14T00:59:51.235Z,69.88
2022-10-14T01:02:18.176Z,72.35
2022-10-14T01:04:46.678Z,76.97
2022-10-14T01:07:22.870Z,72.85
2022-10-14T01:09:59.379Z,69.05
2022-10-14T01:12:39.354Z,72.28
2022-10-14T01:15:15.618Z,77.68
2022-10-14T01:17:57.813Z,73.30
2022-10-14T01:20:46.185Z,80.32
2022-10-14T01:23:42.303Z,77.40
2022-10-14T01:26:48.622Z,77.30
2022-10-14T01:29:54.345Z,86.75
2022-10-14T01:32:28.294Z,89.53
2022-10-14T01:35:30.533Z,87.30
2022-10-14T01:38:11.594Z,86.18
2022-10-14T01:40:55.323Z,81.10
2022-10-14T01:43:26.488Z,84.97
2022-10-14T01:45:55.880Z,90.63
2022-10-14T01:48:28.338Z,87.35
2022-10-14T01:50:58.584Z,76.72
2022-10-14T01:53:32.603Z,79.07
2022-10-14T01:56:02.516Z,81.30
2022-10-14T01:58:32.719Z,93.72
2022-10-14T02:01:04.336Z,86.68
2022-10-14T02:03:40.468Z,86.10
2022-10-14T02:06:17.762Z,88.65
2022-10-14T02:09:09.808Z,89.32
2022-10-14T02:12:01.548Z,93.07
2022-10-14T02:14:39.934Z,98.50
2022-10-14T02:17:17.632Z,111.13
2022-10-14T02:19:52.861Z,116.32
2022-10-14T02:22:37.121Z,132.07
2022-10-14T02:25:28.159Z,129.52
2022-10-14T02:27:56.060Z,130.32
2022-10-14T02:30:23.475Z,135.88
2022-10-14T02:32:59.344Z,128.57
2022-10-14T02:35:30.723Z,131.48
2022-10-14T02:37:59.235Z,135.40
2022-10-14T02:40:35.383Z,141.85
2022-10-14T02:43:08.087Z,130.85
2022-10-14T02:45:35.208Z,138.40
2022-10-14T02:48:02.311Z,131.13
2022-10-14T02:50:29.991Z,138.80
2022-10-14T02:52:56.893Z,131.02
2022-10-14T02:55:23.935Z,127.15
2022-10-14T02:57:51.405Z,128.23
2022-10-14T03:00:19.292Z,144.40
2022-10-14T03:02:49.200Z,126.47
2022-10-14T03:05:21.166Z,119.28
2022-10-14T03:07:50.562Z,135.07
2022-10-14T03:10:19.489Z,129.80
2022-10-14T03:12:48.020Z,120.63
2022-10-14T03:15:24.285Z,119.43
2022-10-14T03:17:52.469Z,131.05
2022-10-14T03:20:24.272Z,134.75
2022-10-14T03:22:59.418Z,121.40
2022-10-14T03:25:27.889Z,121.35
2022-10-14T03:28:16.260Z,123.70
2022-10-14T03:30:52.309Z,110.65
2022-10-14T03:33:35.736Z,108.72
2022-10-14T03:36:10.420Z,101.93
2022-10-14T03:38:50.383Z,102.68
2022-10-14T03:41:47.217Z,109.28
2022-10-14T03:44:17.612Z,109.75
2022-10-14T03:47:09.346Z,121.43
2022-10-14T03:49:38.363Z,108.07
2022-10-14T03:52:12.915Z,108.90
2022-10-14T03:54:42.627Z,110.50
2022-10-14T03:57:11.515Z,114.43
2022-10-14T03:59:45.232Z,106.35
2022-10-14T04:02:13.041Z,112.60
2022-10-14T04:04:41.565Z,101.85
2022-10-14T04:07:09.214Z,94.85
2022-10-14T04:09:42.510Z,95.82
2022-10-14T04:12:12.853Z,103.78
2022-10-14T04:14:50.448Z,99.63
2022-10-14T04:17:17.619Z,92.05
2022-10-14T04:19:45.263Z,91.63
2022-10-14T04:22:14.314Z,98.97
2022-10-14T04:24:41.644Z,93.97
2022-10-14T04:27:08.563Z,98.35
2022-10-14T04:29:45.575Z,88.82
2022-10-14T04:32:19.693Z,94.63
2022-10-14T04:34:47.634Z,97.68
2022-10-14T04:37:18.499Z,82.93
2022-10-14T04:39:52.652Z,93.53
2022-10-14T04:42:22.248Z,86.32
2022-10-14T04:44:54.371Z,78.50
2022-10-14T04:47:29.046Z,85.93
2022-10-14T04:50:00.742Z,83.05
2022-10-14T04:52:30.112Z,83.50
2022-10-14T04:55:04.836Z,77.88
2022-10-14T04:57:43.959Z,70.20
2022-10-14T05:00:15.979Z,78.82
2022-10-14T05:02:56.979Z,85.20
2022-10-14T05:05:33.020Z,79.82
2022-10-14T05:08:05.632Z,75.35
2022-10-14T05:10:37.847Z,80.27
2022-10-14T05:13:08.845Z,77.43
2022-10-14T05:15:46.437Z,85.68
2022-10-14T05:18:13.906Z,78.40
2022-10-14T05:21:00.072Z,75.47
2022-10-14T05:23:39.616Z,78.35
2022-10-14T05:26:10.899Z,83.57
2022-10-14T05:28:40.122Z,80.60
2022-10-14T05:31:08.837Z,83.15
2022-10-14T05:33:48.331Z,82.28
2022-10-14T05:36:15.546Z,72.97
2022-10-14T05:38:42.491Z,75.88
2022-10-14T05:41:10.262Z,90.97
2022-10-14T05:43:38.447Z,91.53
2022-10-14T05:46:09.121Z,100.28
2022-10-14T05:51:11.921Z,101.93
2022-10-14T05:53:40.032Z,105.88
2022-10-14T05:56:12.846Z,93.20
2022-10-14T05:58:41.330Z,92.95
2022-10-14T06:01:11.249Z,101.32
2022-10-14T06:03:43.656Z,103.47
2022-10-14T06:06:14.673Z,105.65
2022-10-14T06:08:45.218Z,109.82
2022-10-14T06:11:13.181Z,115.78
2022-10-14T06:13:40.377Z,104.05
2022-10-14T06:16:10.164Z,107.32
2022-10-14T06:18:38.020Z,116.38
2022-10-14T06:21:06.110Z,111.05
2022-10-14T06:23:34.712Z,120.25
2022-10-14T06:26:06.588Z,114.47
2022-10-14T06:28:33.626Z,102.57
2022-10-14T06:31:00.867Z,97.28
2022-10-14T06:33:30.880Z,92.95
2022-10-14T06:35:57.997Z,87.93
2022-10-14T06:38:25.244Z,87.63
2022-10-14T06:40:53.377Z,88.78
2022-10-14T06:43:21.752Z,78.38
2022-10-14T06:45:51.269Z,82.63
2022-10-14T06:48:18.635Z,81.80
2022-10-14T06:50:45.509Z,78.55
2022-10-14T06:53:12.686Z,73.88
2022-10-14T06:55:39.624Z,67.65
2022-10-14T06:58:06.974Z,62.45
2022-10-14T07:00:34.564Z,64.70
2022-10-14T07:03:01.582Z,60.33
2022-10-14T07:05:29.038Z,61.35
2022-10-14T07:07:58.620Z,53.60
2022-10-14T07:10:25.518Z,53.38
2022-10-14T07:12:56.343Z,50.67
2022-10-14T07:15:23.735Z,56.63
2022-10-14T07:17:50.848Z,56.33
2022-10-14T07:20:17.897Z,45.50
2022-10-14T07:22:45.979Z,45.95
2022-10-14T07:25:13.030Z,47.63
2022-10-14T07:27:41.006Z,45.00
2022-10-14T07:30:11.495Z,45.35
2022-10-14T07:32:43.042Z,54.50
2022-10-14T07:35:13.115Z,41.05
2022-10-14T07:37:40.091Z,43.13
2022-10-14T07:40:07.638Z,41.60
2022-10-14T07:42:34.935Z,39.95
2022-10-14T07:45:02.771Z,45.25
2022-10-14T07:47:29.976Z,41.88
2022-10-14T07:49:57.235Z,46.78
2022-10-14T07:52:24.267Z,41.78
2022-10-14T07:54:51.185Z,48.08
2022-10-14T07:57:18.717Z,41.58
2022-10-14T07:59:48.366Z,39.33
2022-10-14T08:02:18.176Z,41.35
2022-10-14T08:04:45.976Z,41.60
2022-10-14T08:07:14.637Z,43.92
2022-10-14T08:09:41.894Z,39.72
2022-10-14T08:12:08.952Z,41.90
2022-10-14T08:14:36.516Z,38.33
2022-10-14T08:17:03.706Z,43.42
2022-10-14T08:19:30.792Z,46.70
2022-10-14T08:21:57.983Z,41.33
2022-10-14T08:24:27.604Z,38.45
2022-10-14T08:26:57.141Z,40.00
2022-10-14T08:29:24.881Z,46.17
2022-10-14T08:31:54.210Z,39.83
2022-10-14T08:34:24.624Z,42.08
2022-10-14T08:36:51.969Z,39.47
2022-10-14T08:39:19.547Z,40.17
2022-10-14T08:42:24.575Z,36.80
2022-10-14T08:45:24.154Z,47.95
2022-10-14T08:47:57.186Z,40.05
2022-10-14T08:50:33.862Z,42.70
2022-10-14T08:53:12.530Z,42.63
2022-10-14T08:55:41.222Z,40.03
2022-10-14T08:58:38.669Z,45.90
2022-10-14T09:01:19.768Z,45.47
2022-10-14T09:03:47.183Z,46.90
2022-10-14T09:06:22.581Z,52.85
2022-10-14T09:08:50.774Z,48.60
2022-10-14T09:11:24.264Z,52.45
2022-10-14T09:13:57.970Z,46.90
2022-10-14T09:16:29.630Z,50.70
2022-10-14T09:18:59.673Z,45.95
2022-10-14T09:21:53.655Z,41.67
2022-10-14T09:24:28.537Z,43.33
2022-10-14T09:27:03.172Z,48.75
2022-10-14T09:29:37.669Z,47.72
2022-10-14T09:32:09.979Z,44.55
2022-10-14T09:34:39.992Z,43.50
2022-10-14T09:37:29.478Z,45.08
2022-10-14T09:40:08.861Z,49.65
2022-10-14T09:42:50.174Z,47.40
2022-10-14T09:45:22.715Z,45.88
2022-10-14T09:47:59.547Z,46.20
2022-10-14T09:50:26.988Z,45.17
2022-10-14T09:53:10.915Z,42.08
2022-10-14T09:55:47.195Z,41.03
2022-10-14T09:58:18.706Z,44.33
2022-10-14T10:00:46.379Z,46.83
2022-10-14T10:03:29.629Z,46.40
2022-10-14T10:06:06.122Z,46.78
2022-10-14T10:08:34.794Z,47.97
2022-10-14T10:11:14.018Z,48.25
2022-10-14T10:13:48.452Z,42.95
2022-10-14T10:16:34.881Z,44.28
2022-10-14T10:19:31.347Z,47.67
2022-10-14T10:22:23.026Z,43.17
2022-10-14T10:24:53.083Z,44.17
2022-10-14T10:27:27.929Z,43.30
2022-10-14T10:29:57.209Z,42.57
2022-10-14T10:32:50.285Z,42.72
2022-10-14T10:35:52.713Z,45.85
2022-10-14T10:38:25.806Z,45.88
2022-10-14T10:41:41.395Z,46.83
2022-10-14T10:44:44.642Z,40.72
2022-10-14T10:47:31.513Z,53.25
2022-10-14T10:50:18.356Z,44.03
2022-10-14T10:53:11.619Z,47.53
2022-10-14T10:56:00.164Z,38.17
2022-10-14T10:58:49.002Z,40.20
2022-10-14T11:01:28.492Z,42.63
2022-10-14T11:04:16.396Z,37.30
2022-10-14T11:07:05.648Z,39.05
2022-10-14T11:10:10.439Z,44.38
2022-10-14T11:13:00.212Z,39.55
2022-10-14T11:15:47.526Z,39.42
2022-10-14T11:18:45.652Z,39.42
2022-10-14T11:21:39.167Z,41.33
2022-10-14T11:24:19.924Z,38.90
2022-10-14T11:26:59.481Z,38.78
2022-10-14T11:29:57.912Z,34.85
2022-10-14T11:33:00.216Z,37.33
2022-10-14T11:35:47.655Z,29.80
2022-10-14T11:41:35.568Z,31.58
2022-10-14T11:44:08.524Z,34.08
2022-10-14T11:46:45.958Z,33.03
2022-10-14T11:49:27.183Z,35.28
2022-10-14T11:52:03.657Z,33.13
2022-10-14T11:54:42.999Z,32.38
2022-10-14T11:57:13.052Z,32.08
2022-10-14T11:59:49.121Z,32.58
2022-10-14T12:02:44.347Z,32.35
2022-10-14T12:05:34.229Z,28.98
2022-10-14T12:08:28.425Z,33.08
2022-10-14T12:11:30.178Z,32.50
2022-10-14T12:14:11.125Z,27.73
2022-10-14T12:16:42.167Z,28.08
2022-10-14T12:19:14.550Z,26.50
2022-10-14T12:21:59.708Z,33.33
2022-10-14T12:24:36.390Z,34.22
2022-10-14T12:27:06.147Z,33.40
2022-10-14T12:29:53.210Z,31.83
2022-10-14T12:32:26.008Z,29.10
2022-10-14T12:34:58.275Z,32.42
2022-10-14T12:37:28.923Z,32.22
2022-10-14T12:40:07.852Z,27.63
2022-10-14T12:42:44.162Z,28.20
2022-10-14T12:45:16.158Z,28.67
2022-10-14T12:47:44.171Z,31.58
2022-10-14T12:50:14.188Z,31.02
2022-10-14T12:52:46.116Z,32.75
2022-10-14T12:55:23.816Z,28.13
2022-10-14T12:57:57.269Z,28.70
2022-10-14T13:00:24.163Z,27.30
2022-10-14T13:02:59.354Z,24.90
2022-10-14T13:05:29.325Z,27.52
2022-10-14T13:08:23.701Z,27.50
2022-10-14T13:10:59.865Z,24.13
2022-10-14T13:13:49.440Z,30.38
2022-10-14T13:16:25.649Z,26.63
2022-10-14T13:19:00.668Z,28.15
2022-10-14T13:21:36.871Z,27.83
2022-10-14T13:24:38.533Z,28.08
2022-10-14T13:27:23.117Z,28.27
2022-10-14T13:30:34.048Z,29.90
2022-10-14T13:33:31.645Z,31.83
2022-10-14T13:36:14.113Z,31.02
2022-10-14T13:38:46.911Z,33.25
2022-10-14T13:41:30.567Z,29.15
2022-10-14T13:44:04.981Z,28.80
2022-10-14T13:46:47.751Z,26.73
2022-10-14T13:49:20.463Z,34.33
2022-10-14T13:51:55.205Z,33.60
2022-10-14T13:54:23.079Z,29.80
2022-10-14T14:00:37.893Z,32.85
2022-10-14T14:02:42.757Z,34.13
2022-10-14T14:05:16.310Z,32.22
2022-10-14T14:10:51.452Z,29.35
2022-10-14T14:13:25.317Z,30.40
2022-10-14T14:15:54.516Z,26.23
2022-10-14T14:19:03.998Z,29.95
2022-10-14T14:21:34.882Z,29.17
2022-10-14T14:24:02.338Z,28.52
2022-10-14T14:26:35.499Z,25.90
2022-10-14T14:29:22.721Z,31.98
2022-10-14T14:32:07.918Z,26.10
2022-10-14T14:34:39.771Z,29.55
2022-10-14T14:37:40.216Z,29.77
2022-10-14T14:40:07.475Z,26.75
2022-10-14T14:42:37.650Z,26.05
2022-10-14T14:45:12.617Z,26.90
2022-10-14T14:47:41.097Z,28.52
2022-10-14T14:50:30.892Z,23.40
2022-10-14T14:53:04.263Z,26.77
2022-10-14T14:55:35.994Z,24.30
2022-10-14T14:58:40.886Z,34.88
2022-10-14T15:01:32.584Z,29.55
2022-10-14T15:04:12.926Z,25.75
2022-10-14T15:06:51.032Z,28.77
2022-10-14T15:09:38.864Z,25.30
2022-10-14T15:12:15.186Z,25.60
2022-10-14T15:14:48.631Z,29.63
2022-10-14T15:17:35.784Z,28.42
2022-10-14T15:20:05.882Z,36.28
2022-10-14T15:22:36.254Z,29.98
2022-10-14T15:25:07.901Z,52.75
2022-10-14T15:27:35.474Z,78.15
2022-10-14T15:30:21.313Z,47.90
2022-10-14T15:35:21.131Z,88.28
2022-10-14T15:37:52.130Z,44.40
2022-10-14T15:40:22.505Z,46.00
2022-10-14T15:42:54.571Z,50.00
2022-10-14T15:45:22.146Z,48.40
2022-10-14T15:50:25.965Z,73.28
2022-10-14T15:52:56.963Z,51.90
2022-10-14T15:55:26.888Z,60.95
2022-10-14T15:57:54.096Z,36.10
2022-10-14T16:00:22.733Z,35.78
2022-10-14T16:02:55.772Z,40.40
2022-10-14T16:05:22.825Z,42.42
2022-10-14T16:07:49.930Z,41.03
2022-10-14T16:10:21.330Z,31.17
2022-10-14T16:12:48.986Z,39.08
2022-10-14T16:15:28.124Z,56.50
2022-10-14T16:17:55.198Z,78.15
2022-10-14T16:20:22.860Z,77.15
2022-10-14T16:22:50.184Z,82.88
2022-10-14T16:25:33.792Z,66.82
2022-10-14T16:28:01.688Z,65.00
2022-10-14T16:30:28.727Z,57.97
2022-10-14T16:32:56.129Z,48.78
2022-10-14T16:35:23.152Z,54.17
2022-10-14T16:37:50.179Z,40.22
2022-10-14T16:40:17.342Z,40.83
2022-10-14T16:42:44.436Z,40.22
2022-10-14T16:45:14.313Z,34.90
2022-10-14T16:47:41.881Z,41.33
2022-10-14T16:50:13.052Z,78.20
2022-10-14T16:53:02.127Z,73.10
2022-10-14T16:55:32.522Z,63.83
2022-10-14T16:57:59.807Z,46.70
2022-10-14T17:00:27.095Z,48.20
2022-10-14T17:02:59.997Z,60.85
2022-10-14T17:05:31.878Z,53.17
2022-10-14T17:07:58.942Z,44.03
2022-10-14T17:10:28.818Z,44.53
2022-10-14T17:13:06.132Z,39.50
2022-10-14T17:15:36.616Z,40.17
2022-10-14T17:18:09.863Z,37.58
2022-10-14T17:20:39.380Z,36.63
2022-10-14T17:23:10.222Z,37.85
2022-10-14T17:25:40.147Z,37.72
2022-10-14T17:28:07.625Z,36.00
2022-10-14T17:30:34.967Z,32.20
2022-10-14T17:33:02.325Z,35.00
2022-10-14T17:35:29.492Z,29.13
2022-10-14T17:37:57.240Z,31.98
2022-10-14T17:40:26.699Z,33.13
2022-10-14T17:42:54.728Z,32.22
2022-10-14T17:45:26.179Z,31.80
2022-10-14T17:47:58.305Z,29.77
2022-10-14T17:50:27.144Z,35.58
2022-10-14T17:52:58.882Z,30.55
2022-10-14T17:55:29.197Z,26.98
2022-10-14T17:57:57.077Z,34.85
2022-10-14T18:00:24.525Z,34.03
2022-10-14T18:02:52.126Z,36.38
2022-10-14T18:05:20.765Z,35.28
2022-10-14T18:07:51.712Z,32.53
2022-10-14T18:10:21.013Z,39.28
2022-10-14T18:12:48.807Z,39.97
2022-10-14T18:15:18.592Z,38.60
2022-10-14T18:17:47.083Z,39.72
2022-10-14T18:20:16.902Z,37.55
2022-10-14T18:22:44.373Z,36.88
2022-10-14T18:25:15.373Z,36.65
2022-10-14T18:27:44.306Z,35.72
2022-10-14T18:30:13.568Z,34.22
2022-10-14T18:32:41.093Z,35.35
2022-10-14T18:35:09.017Z,37.20
2022-10-14T18:37:37.161Z,37.95
2022-10-14T18:40:05.155Z,35.55
2022-10-14T18:42:32.463Z,32.03
2022-10-14T18:45:00.337Z,34.22
2022-10-14T18:47:28.264Z,33.30
2022-10-14T18:49:58.459Z,38.60
2022-10-14T18:52:26.302Z,37.83
2022-10-14T18:54:55.735Z,35.55
2022-10-14T18:57:26.257Z,33.25
2022-10-14T18:59:53.870Z,38.42
2022-10-14T19:02:21.730Z,43.47
2022-10-14T19:04:50.228Z,67.43
2022-10-14T19:07:18.104Z,54.65
2022-10-14T19:09:46.317Z,52.22
2022-10-14T19:12:32.710Z,41.97
2022-10-14T19:15:01.049Z,42.67
2022-10-14T19:17:29.713Z,39.78
2022-10-14T19:19:58.839Z,36.15
2022-10-14T19:22:26.855Z,42.97
2022-10-14T19:24:54.238Z,42.08
2022-10-14T19:27:22.170Z,41.72
2022-10-14T19:29:50.746Z,45.35
2022-10-14T19:32:21.121Z,47.50
2022-10-14T19:34:52.012Z,38.55
2022-10-14T19:37:20.123Z,44.22
2022-10-14T19:39:47.903Z,42.25
2022-10-14T19:42:15.524Z,43.67
2022-10-14T19:44:43.244Z,49.92
2022-10-14T19:47:11.633Z,43.28
2022-10-14T19:49:39.937Z,43.95
2022-10-14T19:52:08.263Z,47.58
2022-10-14T19:54:36.156Z,43.17
2022-10-14T19:57:05.368Z,41.20
2022-10-14T19:59:36.073Z,44.47
2022-10-14T20:02:03.152Z,45.33
2022-10-14T20:04:30.615Z,47.85
2022-10-14T20:06:58.591Z,46.85
2022-10-14T20:09:26.357Z,52.20
2022-10-14T20:11:55.830Z,47.55
2022-10-14T20:14:24.049Z,49.33
2022-10-14T20:16:53.662Z,45.33
2022-10-14T20:19:23.558Z,54.00
2022-10-14T20:21:50.832Z,49.10
2022-10-14T20:24:17.781Z,60.88
2022-10-14T20:26:44.806Z,57.45
2022-10-14T20:29:11.964Z,53.08
2022-10-14T20:31:39.318Z,48.22
2022-10-14T20:34:10.246Z,57.88
2022-10-14T20:36:38.502Z,54.25
2022-10-14T20:39:05.488Z,58.72
2022-10-14T20:41:32.649Z,55.30
2022-10-14T20:43:59.909Z,57.90
2022-10-14T20:46:26.927Z,50.30
2022-10-14T20:48:57.600Z,53.75
2022-10-14T20:51:25.351Z,48.40
2022-10-14T20:54:03.025Z,56.30
2022-10-14T20:56:34.114Z,55.47
2022-10-14T20:59:04.269Z,58.28
2022-10-14T21:01:32.717Z,51.58
2022-10-14T21:04:04.719Z,71.38
2022-10-14T21:06:31.646Z,56.30
2022-10-14T21:09:01.074Z,59.67
2022-10-14T21:11:28.310Z,67.55
2022-10-14T21:14:00.699Z,73.57
2022-10-14T21:16:34.106Z,82.97
2022-10-14T21:19:09.401Z,70.22
2022-10-14T21:21:39.268Z,71.82
2022-10-14T21:24:07.634Z,75.05
2022-10-14T21:26:34.743Z,84.22
2022-10-14T21:29:05.148Z,74.80
2022-10-14T21:31:32.598Z,89.13
2022-10-14T21:34:06.061Z,82.97
2022-10-14T21:36:37.602Z,69.05
2022-10-14T21:39:13.522Z,65.60
2022-10-14T21:41:41.559Z,69.75
2022-10-14T21:44:10.909Z,78.57
2022-10-14T21:46:37.911Z,71.75
2022-10-14T21:49:05.213Z,80.22
2022-10-14T21:51:32.937Z,80.80
2022-10-14T21:53:59.850Z,87.50
2022-10-14T21:56:28.115Z,86.10
2022-10-14T21:58:55.615Z,85.22
2022-10-14T22:01:27.911Z,95.28
2022-10-14T22:04:03.870Z,84.10
2022-10-14T22:09:01.125Z,97.82
2022-10-14T22:11:39.830Z,111.53
2022-10-14T22:14:17.569Z,122.82
2022-10-14T22:16:47.788Z,107.80
2022-10-14T22:19:15.324Z,115.47
2022-10-14T22:21:43.634Z,113.95
2022-10-14T22:24:11.104Z,104.63
2022-10-14T22:26:40.400Z,123.60
2022-10-14T22:29:13.116Z,116.07
2022-10-14T22:31:40.811Z,119.60
2022-10-14T22:34:10.020Z,126.70
2022-10-14T22:36:37.381Z,120.25
2022-10-14T22:39:08.058Z,115.93
2022-10-14T22:41:36.130Z,122.28
2022-10-14T22:44:05.742Z,112.90
2022-10-14T22:46:35.483Z,135.45
2022-10-14T22:49:02.543Z,116.78
2022-10-14T22:51:32.802Z,117.80
2022-10-14T22:54:00.176Z,129.13
2022-10-14T22:56:29.044Z,144.93
2022-10-14T22:59:01.954Z,108.57
2022-10-14T23:01:29.199Z,116.40
2022-10-14T23:03:57.588Z,127.53
2022-10-14T23:06:25.482Z,138.90
2022-10-14T23:08:54.353Z,118.90
2022-10-14T23:11:23.409Z,123.03
2022-10-14T23:13:51.098Z,123.60
2022-10-14T23:16:23.674Z,138.63
2022-10-14T23:18:51.092Z,147.45
2022-10-14T23:21:20.910Z,138.77
2022-10-14T23:23:49.721Z,140.43
2022-10-14T23:26:21.372Z,151.00
2022-10-14T23:28:56.257Z,142.38
2022-10-14T23:31:26.702Z,152.85
2022-10-14T23:33:54.613Z,131.20
2022-10-14T23:36:22.511Z,132.07
2022-10-14T23:38:51.706Z,134.25
2022-10-14T23:41:19.493Z,141.18
2022-10-14T23:43:46.510Z,165.98
2022-10-14T23:46:14.067Z,159.80
2022-10-14T23:48:41.252Z,164.13
2022-10-14T23:51:08.924Z,171.05
2022-10-14T23:53:36.147Z,144.93
2022-10-14T23:56:04.396Z,146.90
2022-10-14T23:58:34.515Z,166.55
